sensor_id;sensor_type;location;lat;lon;timestamp;P1;durP1;ratioP1;P2;durP2;ratioP2
7033;SDS011;3558;53.176;10.412;2023-09-07T07:17:25;1.50;;;1.40;;
7033;SDS011;3558;53.176;10.412;2023-09-07T07:19:51;1.95;;;1.42;;
7033;SDS011;3558;53.176;10.412;2023-09-07T07:22:16;1.70;;;1.40;;
7033;SDS011;3558;53.176;10.412;2023-09-07T07:24:42;1.80;;;1.60;;
7033;SDS011;3558;53.176;10.412;2023-09-07T07:27:08;1.92;;;1.40;;
7033;SDS011;3558;53.176;10.412;2023-09-07T07:29:33;1.70;;;1.60;;
7033;SDS011;3558;53.176;10.412;2023-09-07T07:31:59;1.60;;;1.40;;
7033;SDS011;3558;53.176;10.412;2023-09-07T07:34:24;1.83;;;1.63;;
7033;SDS011;3558;53.176;10.412;2023-09-07T07:36:50;1.58;;;1.45;;
7033;SDS011;3558;53.176;10.412;2023-09-07T07:39:15;2.10;;;1.67;;
7033;SDS011;3558;53.176;10.412;2023-09-07T07:41:41;1.90;;;1.70;;
7033;SDS011;3558;53.176;10.412;2023-09-07T07:44:06;2.10;;;1.48;;
7033;SDS011;3558;53.176;10.412;2023-09-07T07:46:33;2.30;;;1.50;;
7033;SDS011;3558;53.176;10.412;2023-09-07T07:48:58;1.60;;;1.50;;
7033;SDS011;3558;53.176;10.412;2023-09-07T07:51:24;1.77;;;1.60;;
7033;SDS011;3558;53.176;10.412;2023-09-07T07:53:49;1.50;;;1.40;;
7033;SDS011;3558;53.176;10.412;2023-09-07T07:56:18;2.20;;;1.70;;
7033;SDS011;3558;53.176;10.412;2023-09-07T07:58:43;1.88;;;1.60;;
7033;SDS011;3558;53.176;10.412;2023-09-07T08:01:14;1.75;;;1.60;;
7033;SDS011;3558;53.176;10.412;2023-09-07T08:03:40;1.67;;;1.58;;
7033;SDS011;3558;53.176;10.412;2023-09-07T08:06:06;1.90;;;1.63;;
7033;SDS011;3558;53.176;10.412;2023-09-07T08:08:31;2.03;;;1.73;;
7033;SDS011;3558;53.176;10.412;2023-09-07T08:10:58;2.00;;;1.70;;
7033;SDS011;3558;53.176;10.412;2023-09-07T08:13:25;2.20;;;2.00;;
7033;SDS011;3558;53.176;10.412;2023-09-07T08:15:50;1.95;;;1.73;;
7033;SDS011;3558;53.176;10.412;2023-09-07T08:18:16;2.13;;;1.93;;
7033;SDS011;3558;53.176;10.412;2023-09-07T08:20:41;2.30;;;2.10;;
7033;SDS011;3558;53.176;10.412;2023-09-07T08:23:07;2.00;;;1.80;;
7033;SDS011;3558;53.176;10.412;2023-09-07T08:25:34;2.05;;;1.85;;
7033;SDS011;3558;53.176;10.412;2023-09-07T08:28:00;2.45;;;1.90;;
7033;SDS011;3558;53.176;10.412;2023-09-07T08:30:30;2.28;;;2.08;;
7033;SDS011;3558;53.176;10.412;2023-09-07T08:32:55;2.45;;;1.90;;
7033;SDS011;3558;53.176;10.412;2023-09-07T08:35:21;2.40;;;2.20;;
7033;SDS011;3558;53.176;10.412;2023-09-07T08:37:51;2.30;;;2.10;;
7033;SDS011;3558;53.176;10.412;2023-09-07T08:40:17;2.10;;;1.90;;
7033;SDS011;3558;53.176;10.412;2023-09-07T08:42:44;2.45;;;2.20;;
7033;SDS011;3558;53.176;10.412;2023-09-07T08:45:09;2.20;;;2.00;;
7033;SDS011;3558;53.176;10.412;2023-09-07T08:47:40;2.30;;;2.10;;
7033;SDS011;3558;53.176;10.412;2023-09-07T08:50:07;2.50;;;2.30;;
7033;SDS011;3558;53.176;10.412;2023-09-07T08:52:35;3.13;;;2.40;;
7033;SDS011;3558;53.176;10.412;2023-09-07T08:55:01;2.50;;;2.30;;
7033;SDS011;3558;53.176;10.412;2023-09-07T08:57:29;2.58;;;2.30;;
7033;SDS011;3558;53.176;10.412;2023-09-07T08:59:55;2.65;;;2.45;;
7033;SDS011;3558;53.176;10.412;2023-09-07T09:02:21;2.73;;;2.53;;
7033;SDS011;3558;53.176;10.412;2023-09-07T09:04:46;2.60;;;2.40;;
7033;SDS011;3558;53.176;10.412;2023-09-07T09:07:12;3.13;;;2.70;;
7033;SDS011;3558;53.176;10.412;2023-09-07T09:09:38;2.80;;;2.60;;
7033;SDS011;3558;53.176;10.412;2023-09-07T09:12:10;2.90;;;2.60;;
7033;SDS011;3558;53.176;10.412;2023-09-07T09:14:36;2.85;;;2.65;;
7033;SDS011;3558;53.176;10.412;2023-09-07T09:17:02;3.00;;;2.70;;
7033;SDS011;3558;53.176;10.412;2023-09-07T09:19:31;3.42;;;2.88;;
7033;SDS011;3558;53.176;10.412;2023-09-07T09:21:57;2.90;;;2.60;;
7033;SDS011;3558;53.176;10.412;2023-09-07T09:24:23;3.20;;;2.90;;
7033;SDS011;3558;53.176;10.412;2023-09-07T09:26:48;2.77;;;2.53;;
7033;SDS011;3558;53.176;10.412;2023-09-07T09:29:14;3.00;;;2.58;;
7033;SDS011;3558;53.176;10.412;2023-09-07T09:31:40;3.22;;;2.65;;
7033;SDS011;3558;53.176;10.412;2023-09-07T09:34:06;3.00;;;2.70;;
7033;SDS011;3558;53.176;10.412;2023-09-07T09:36:35;3.10;;;2.80;;
7033;SDS011;3558;53.176;10.412;2023-09-07T09:39:01;3.00;;;2.70;;
7033;SDS011;3558;53.176;10.412;2023-09-07T09:41:28;3.20;;;2.88;;
7033;SDS011;3558;53.176;10.412;2023-09-07T09:43:56;3.42;;;2.78;;
7033;SDS011;3558;53.176;10.412;2023-09-07T09:46:23;3.10;;;2.80;;
7033;SDS011;3558;53.176;10.412;2023-09-07T09:48:49;3.40;;;3.10;;
7033;SDS011;3558;53.176;10.412;2023-09-07T09:51:16;3.85;;;3.00;;
7033;SDS011;3558;53.176;10.412;2023-09-07T09:53:43;2.88;;;2.67;;
7033;SDS011;3558;53.176;10.412;2023-09-07T09:56:10;3.38;;;3.08;;
7033;SDS011;3558;53.176;10.412;2023-09-07T09:58:36;3.23;;;2.93;;
7033;SDS011;3558;53.176;10.412;2023-09-07T10:01:02;3.38;;;3.08;;
7033;SDS011;3558;53.176;10.412;2023-09-07T10:03:38;3.33;;;3.03;;
7033;SDS011;3558;53.176;10.412;2023-09-07T10:06:11;3.25;;;2.72;;
7033;SDS011;3558;53.176;10.412;2023-09-07T10:08:50;3.08;;;2.78;;
7033;SDS011;3558;53.176;10.412;2023-09-07T10:11:31;3.08;;;2.78;;
7033;SDS011;3558;53.176;10.412;2023-09-07T10:13:58;3.70;;;3.00;;
7033;SDS011;3558;53.176;10.412;2023-09-07T10:16:25;4.53;;;3.00;;
7033;SDS011;3558;53.176;10.412;2023-09-07T10:18:52;3.50;;;2.70;;
7033;SDS011;3558;53.176;10.412;2023-09-07T10:21:18;3.37;;;2.77;;
7033;SDS011;3558;53.176;10.412;2023-09-07T10:23:44;3.17;;;2.87;;
7033;SDS011;3558;53.176;10.412;2023-09-07T10:26:17;3.33;;;2.80;;
7033;SDS011;3558;53.176;10.412;2023-09-07T10:28:45;3.40;;;2.67;;
7033;SDS011;3558;53.176;10.412;2023-09-07T10:31:15;3.20;;;2.90;;
7033;SDS011;3558;53.176;10.412;2023-09-07T10:33:42;2.95;;;2.67;;
7033;SDS011;3558;53.176;10.412;2023-09-07T10:36:08;4.05;;;2.85;;
7033;SDS011;3558;53.176;10.412;2023-09-07T10:38:52;3.17;;;2.88;;
7033;SDS011;3558;53.176;10.412;2023-09-07T10:41:19;2.92;;;2.63;;
7033;SDS011;3558;53.176;10.412;2023-09-07T10:43:52;3.25;;;2.95;;
7033;SDS011;3558;53.176;10.412;2023-09-07T10:46:19;3.22;;;2.92;;
7033;SDS011;3558;53.176;10.412;2023-09-07T10:48:48;3.10;;;2.70;;
7033;SDS011;3558;53.176;10.412;2023-09-07T10:51:20;3.55;;;2.97;;
7033;SDS011;3558;53.176;10.412;2023-09-07T10:53:45;3.40;;;3.08;;
7033;SDS011;3558;53.176;10.412;2023-09-07T10:56:11;3.00;;;2.80;;
7033;SDS011;3558;53.176;10.412;2023-09-07T10:58:37;3.08;;;2.78;;
7033;SDS011;3558;53.176;10.412;2023-09-07T11:01:07;3.30;;;3.00;;
7033;SDS011;3558;53.176;10.412;2023-09-07T11:03:34;3.33;;;2.85;;
7033;SDS011;3558;53.176;10.412;2023-09-07T11:06:03;3.72;;;2.75;;
7033;SDS011;3558;53.176;10.412;2023-09-07T11:08:38;3.40;;;3.10;;
7033;SDS011;3558;53.176;10.412;2023-09-07T11:11:04;2.63;;;2.43;;
7033;SDS011;3558;53.176;10.412;2023-09-07T11:13:30;3.20;;;2.90;;
7033;SDS011;3558;53.176;10.412;2023-09-07T11:15:57;3.45;;;2.85;;
7033;SDS011;3558;53.176;10.412;2023-09-07T11:18:23;3.10;;;2.80;;
7033;SDS011;3558;53.176;10.412;2023-09-07T11:20:50;3.63;;;3.17;;
7033;SDS011;3558;53.176;10.412;2023-09-07T11:23:17;2.93;;;2.70;;
7033;SDS011;3558;53.176;10.412;2023-09-07T11:25:43;3.35;;;2.80;;
7033;SDS011;3558;53.176;10.412;2023-09-07T11:28:09;3.23;;;2.93;;
7033;SDS011;3558;53.176;10.412;2023-09-07T11:30:36;3.90;;;3.00;;
7033;SDS011;3558;53.176;10.412;2023-09-07T11:33:06;2.72;;;2.53;;
7033;SDS011;3558;53.176;10.412;2023-09-07T11:35:33;2.95;;;2.65;;
7033;SDS011;3558;53.176;10.412;2023-09-07T11:38:03;3.63;;;2.90;;
7033;SDS011;3558;53.176;10.412;2023-09-07T11:40:32;3.17;;;2.88;;
7033;SDS011;3558;53.176;10.412;2023-09-07T11:42:57;3.50;;;2.90;;
7033;SDS011;3558;53.176;10.412;2023-09-07T11:45:23;3.17;;;2.80;;
7033;SDS011;3558;53.176;10.412;2023-09-07T11:47:49;3.13;;;2.83;;
7033;SDS011;3558;53.176;10.412;2023-09-07T11:50:16;3.35;;;3.05;;
7033;SDS011;3558;53.176;10.412;2023-09-07T11:52:42;2.90;;;2.70;;
7033;SDS011;3558;53.176;10.412;2023-09-07T11:55:08;3.42;;;3.00;;
7033;SDS011;3558;53.176;10.412;2023-09-07T11:57:35;3.00;;;2.70;;
7033;SDS011;3558;53.176;10.412;2023-09-07T12:00:04;2.90;;;2.70;;
7033;SDS011;3558;53.176;10.412;2023-09-07T12:02:30;3.20;;;2.60;;
7033;SDS011;3558;53.176;10.412;2023-09-07T12:04:55;3.13;;;2.83;;
7033;SDS011;3558;53.176;10.412;2023-09-07T12:07:21;3.77;;;2.83;;
7033;SDS011;3558;53.176;10.412;2023-09-07T12:09:47;3.28;;;2.95;;
7033;SDS011;3558;53.176;10.412;2023-09-07T12:12:13;4.00;;;2.90;;
7033;SDS011;3558;53.176;10.412;2023-09-07T12:14:38;2.93;;;2.63;;
7033;SDS011;3558;53.176;10.412;2023-09-07T12:17:04;3.03;;;2.77;;
7033;SDS011;3558;53.176;10.412;2023-09-07T12:19:30;3.08;;;2.70;;
7033;SDS011;3558;53.176;10.412;2023-09-07T12:21:55;3.00;;;2.70;;
7033;SDS011;3558;53.176;10.412;2023-09-07T12:24:21;3.17;;;2.80;;
7033;SDS011;3558;53.176;10.412;2023-09-07T12:26:46;3.57;;;2.83;;
7033;SDS011;3558;53.176;10.412;2023-09-07T12:29:12;3.17;;;2.83;;
7033;SDS011;3558;53.176;10.412;2023-09-07T12:31:38;3.03;;;2.70;;
7033;SDS011;3558;53.176;10.412;2023-09-07T12:34:03;2.93;;;2.73;;
7033;SDS011;3558;53.176;10.412;2023-09-07T12:36:29;2.83;;;2.58;;
7033;SDS011;3558;53.176;10.412;2023-09-07T12:38:55;3.40;;;2.83;;
7033;SDS011;3558;53.176;10.412;2023-09-07T12:41:26;3.13;;;2.80;;
7033;SDS011;3558;53.176;10.412;2023-09-07T12:43:55;3.00;;;2.67;;
7033;SDS011;3558;53.176;10.412;2023-09-07T12:46:21;3.22;;;2.92;;
7033;SDS011;3558;53.176;10.412;2023-09-07T12:48:47;3.08;;;2.75;;
7033;SDS011;3558;53.176;10.412;2023-09-07T12:51:12;3.10;;;2.80;;
7033;SDS011;3558;53.176;10.412;2023-09-07T12:53:38;2.70;;;2.50;;
7033;SDS011;3558;53.176;10.412;2023-09-07T12:56:04;3.50;;;2.72;;
7033;SDS011;3558;53.176;10.412;2023-09-07T12:58:30;3.60;;;2.47;;
7033;SDS011;3558;53.176;10.412;2023-09-07T13:00:55;3.20;;;2.90;;
7033;SDS011;3558;53.176;10.412;2023-09-07T13:03:21;2.80;;;2.60;;
7033;SDS011;3558;53.176;10.412;2023-09-07T13:05:47;3.30;;;2.60;;
7033;SDS011;3558;53.176;10.412;2023-09-07T13:08:13;2.60;;;2.40;;
7033;SDS011;3558;53.176;10.412;2023-09-07T13:10:38;3.00;;;2.80;;
7033;SDS011;3558;53.176;10.412;2023-09-07T13:13:04;2.92;;;2.63;;
7033;SDS011;3558;53.176;10.412;2023-09-07T13:15:30;3.60;;;2.80;;
7033;SDS011;3558;53.176;10.412;2023-09-07T13:17:56;2.80;;;2.50;;
7033;SDS011;3558;53.176;10.412;2023-09-07T13:20:21;3.77;;;2.70;;
7033;SDS011;3558;53.176;10.412;2023-09-07T13:22:47;3.40;;;2.80;;
7033;SDS011;3558;53.176;10.412;2023-09-07T13:25:12;2.67;;;2.47;;
7033;SDS011;3558;53.176;10.412;2023-09-07T13:27:38;2.63;;;2.37;;
7033;SDS011;3558;53.176;10.412;2023-09-07T13:30:04;2.83;;;2.63;;
7033;SDS011;3558;53.176;10.412;2023-09-07T13:32:30;3.33;;;2.75;;
7033;SDS011;3558;53.176;10.412;2023-09-07T13:34:57;3.00;;;2.70;;
7033;SDS011;3558;53.176;10.412;2023-09-07T13:37:23;3.10;;;2.50;;
7033;SDS011;3558;53.176;10.412;2023-09-07T13:39:48;3.10;;;2.40;;
7033;SDS011;3558;53.176;10.412;2023-09-07T13:42:14;3.00;;;2.70;;
7033;SDS011;3558;53.176;10.412;2023-09-07T13:44:39;2.90;;;2.53;;
7033;SDS011;3558;53.176;10.412;2023-09-07T13:47:05;3.37;;;2.53;;
7033;SDS011;3558;53.176;10.412;2023-09-07T13:49:31;2.80;;;2.58;;
7033;SDS011;3558;53.176;10.412;2023-09-07T13:51:57;2.70;;;2.50;;
7033;SDS011;3558;53.176;10.412;2023-09-07T13:54:22;2.78;;;2.42;;
7033;SDS011;3558;53.176;10.412;2023-09-07T13:56:48;2.97;;;2.40;;
7033;SDS011;3558;53.176;10.412;2023-09-07T13:59:13;2.70;;;2.50;;
7033;SDS011;3558;53.176;10.412;2023-09-07T14:01:39;2.90;;;2.60;;
7033;SDS011;3558;53.176;10.412;2023-09-07T14:04:04;2.50;;;2.30;;
7033;SDS011;3558;53.176;10.412;2023-09-07T14:06:30;2.50;;;2.30;;
7033;SDS011;3558;53.176;10.412;2023-09-07T14:08:56;2.70;;;2.50;;
7033;SDS011;3558;53.176;10.412;2023-09-07T14:11:21;2.57;;;2.37;;
7033;SDS011;3558;53.176;10.412;2023-09-07T14:13:50;2.80;;;2.30;;
7033;SDS011;3558;53.176;10.412;2023-09-07T14:16:16;3.30;;;2.38;;
7033;SDS011;3558;53.176;10.412;2023-09-07T14:18:45;2.60;;;2.40;;
7033;SDS011;3558;53.176;10.412;2023-09-07T14:21:13;2.40;;;2.20;;
7033;SDS011;3558;53.176;10.412;2023-09-07T14:23:39;2.78;;;2.53;;
7033;SDS011;3558;53.176;10.412;2023-09-07T14:26:05;2.60;;;2.40;;
7033;SDS011;3558;53.176;10.412;2023-09-07T14:28:31;2.40;;;2.20;;
7033;SDS011;3558;53.176;10.412;2023-09-07T14:30:56;2.72;;;2.30;;
7033;SDS011;3558;53.176;10.412;2023-09-07T14:33:23;2.95;;;2.50;;
7033;SDS011;3558;53.176;10.412;2023-09-07T14:35:50;2.50;;;2.30;;
7033;SDS011;3558;53.176;10.412;2023-09-07T14:38:19;2.67;;;2.25;;
7033;SDS011;3558;53.176;10.412;2023-09-07T14:40:44;2.38;;;2.17;;
7033;SDS011;3558;53.176;10.412;2023-09-07T14:43:10;2.80;;;2.60;;
7033;SDS011;3558;53.176;10.412;2023-09-07T14:45:36;2.43;;;2.23;;
7033;SDS011;3558;53.176;10.412;2023-09-07T14:48:01;2.80;;;2.30;;
7033;SDS011;3558;53.176;10.412;2023-09-07T14:50:27;2.63;;;2.10;;
7033;SDS011;3558;53.176;10.412;2023-09-07T14:52:53;2.50;;;2.30;;
7033;SDS011;3558;53.176;10.412;2023-09-07T14:55:18;2.50;;;2.30;;
7033;SDS011;3558;53.176;10.412;2023-09-07T14:57:44;2.40;;;2.20;;
7033;SDS011;3558;53.176;10.412;2023-09-07T15:00:09;2.80;;;2.35;;
7033;SDS011;3558;53.176;10.412;2023-09-07T15:02:36;2.63;;;2.30;;
7033;SDS011;3558;53.176;10.412;2023-09-07T15:05:02;3.30;;;2.33;;
7033;SDS011;3558;53.176;10.412;2023-09-07T15:07:27;3.00;;;2.50;;
7033;SDS011;3558;53.176;10.412;2023-09-07T15:09:53;2.60;;;2.40;;
7033;SDS011;3558;53.176;10.412;2023-09-07T15:12:18;2.67;;;2.47;;
7033;SDS011;3558;53.176;10.412;2023-09-07T15:14:44;2.60;;;2.40;;
7033;SDS011;3558;53.176;10.412;2023-09-07T15:17:10;3.20;;;2.40;;
7033;SDS011;3558;53.176;10.412;2023-09-07T15:19:36;2.55;;;2.35;;
7033;SDS011;3558;53.176;10.412;2023-09-07T15:22:02;2.88;;;2.30;;
7033;SDS011;3558;53.176;10.412;2023-09-07T15:24:28;2.80;;;2.33;;
7033;SDS011;3558;53.176;10.412;2023-09-07T15:26:54;2.70;;;2.10;;
7033;SDS011;3558;53.176;10.412;2023-09-07T15:29:19;2.97;;;2.50;;
7033;SDS011;3558;53.176;10.412;2023-09-07T15:31:46;2.55;;;2.35;;
7033;SDS011;3558;53.176;10.412;2023-09-07T15:34:12;2.80;;;2.60;;
7033;SDS011;3558;53.176;10.412;2023-09-07T15:36:37;2.50;;;2.30;;
7033;SDS011;3558;53.176;10.412;2023-09-07T15:39:04;2.72;;;2.53;;
7033;SDS011;3558;53.176;10.412;2023-09-07T15:41:29;3.05;;;2.28;;
7033;SDS011;3558;53.176;10.412;2023-09-07T15:43:55;2.37;;;2.17;;
7033;SDS011;3558;53.176;10.412;2023-09-07T15:46:21;2.60;;;2.30;;
7033;SDS011;3558;53.176;10.412;2023-09-07T15:48:47;2.92;;;2.30;;
7033;SDS011;3558;53.176;10.412;2023-09-07T15:51:12;2.65;;;2.10;;
7033;SDS011;3558;53.176;10.412;2023-09-07T15:53:38;2.33;;;2.13;;
7033;SDS011;3558;53.176;10.412;2023-09-07T15:56:04;2.73;;;2.40;;
7033;SDS011;3558;53.176;10.412;2023-09-07T15:58:29;2.70;;;2.50;;
7033;SDS011;3558;53.176;10.412;2023-09-07T16:00:56;2.73;;;2.47;;
7033;SDS011;3558;53.176;10.412;2023-09-07T16:03:22;3.00;;;2.22;;
7033;SDS011;3558;53.176;10.412;2023-09-07T16:05:47;2.63;;;2.35;;
7033;SDS011;3558;53.176;10.412;2023-09-07T16:08:13;2.80;;;2.42;;
7033;SDS011;3558;53.176;10.412;2023-09-07T16:10:38;2.65;;;2.40;;
7033;SDS011;3558;53.176;10.412;2023-09-07T16:13:04;2.58;;;2.38;;
7033;SDS011;3558;53.176;10.412;2023-09-07T16:15:30;2.50;;;2.30;;
7033;SDS011;3558;53.176;10.412;2023-09-07T16:17:56;2.53;;;2.33;;
7033;SDS011;3558;53.176;10.412;2023-09-07T16:20:21;3.03;;;2.30;;
7033;SDS011;3558;53.176;10.412;2023-09-07T16:22:47;2.42;;;2.17;;
7033;SDS011;3558;53.176;10.412;2023-09-07T16:25:13;2.33;;;2.13;;
7033;SDS011;3558;53.176;10.412;2023-09-07T16:27:39;3.78;;;2.50;;
7033;SDS011;3558;53.176;10.412;2023-09-07T16:30:08;3.13;;;2.30;;
7033;SDS011;3558;53.176;10.412;2023-09-07T16:32:35;2.70;;;2.20;;
7033;SDS011;3558;53.176;10.412;2023-09-07T16:35:07;3.15;;;2.42;;
7033;SDS011;3558;53.176;10.412;2023-09-07T16:37:33;2.35;;;2.15;;
7033;SDS011;3558;53.176;10.412;2023-09-07T16:39:59;3.17;;;2.67;;
7033;SDS011;3558;53.176;10.412;2023-09-07T16:42:24;2.93;;;2.63;;
7033;SDS011;3558;53.176;10.412;2023-09-07T16:44:50;2.50;;;2.30;;
7033;SDS011;3558;53.176;10.412;2023-09-07T16:47:17;2.60;;;2.28;;
7033;SDS011;3558;53.176;10.412;2023-09-07T16:49:43;2.58;;;2.20;;
7033;SDS011;3558;53.176;10.412;2023-09-07T16:52:08;2.80;;;2.40;;
7033;SDS011;3558;53.176;10.412;2023-09-07T16:54:34;2.50;;;2.30;;
7033;SDS011;3558;53.176;10.412;2023-09-07T16:57:00;2.40;;;2.20;;
7033;SDS011;3558;53.176;10.412;2023-09-07T16:59:25;2.90;;;2.30;;
7033;SDS011;3558;53.176;10.412;2023-09-07T17:01:51;2.57;;;2.30;;
7033;SDS011;3558;53.176;10.412;2023-09-07T17:04:23;2.42;;;2.20;;
7033;SDS011;3558;53.176;10.412;2023-09-07T17:06:49;2.60;;;2.40;;
7033;SDS011;3558;53.176;10.412;2023-09-07T17:09:15;2.88;;;2.30;;
7033;SDS011;3558;53.176;10.412;2023-09-07T17:11:41;2.80;;;2.50;;
7033;SDS011;3558;53.176;10.412;2023-09-07T17:14:07;2.77;;;2.40;;
7033;SDS011;3558;53.176;10.412;2023-09-07T17:16:33;2.95;;;2.40;;
7033;SDS011;3558;53.176;10.412;2023-09-07T17:18:59;2.40;;;2.20;;
7033;SDS011;3558;53.176;10.412;2023-09-07T17:21:24;3.10;;;2.50;;
7033;SDS011;3558;53.176;10.412;2023-09-07T17:23:50;3.17;;;2.33;;
7033;SDS011;3558;53.176;10.412;2023-09-07T17:26:15;2.63;;;2.33;;
7033;SDS011;3558;53.176;10.412;2023-09-07T17:28:41;2.63;;;2.33;;
7033;SDS011;3558;53.176;10.412;2023-09-07T17:31:16;2.90;;;2.40;;
7033;SDS011;3558;53.176;10.412;2023-09-07T17:33:41;2.83;;;2.58;;
7033;SDS011;3558;53.176;10.412;2023-09-07T17:36:17;2.83;;;2.53;;
7033;SDS011;3558;53.176;10.412;2023-09-07T17:38:43;3.00;;;2.70;;
7033;SDS011;3558;53.176;10.412;2023-09-07T17:41:09;3.70;;;3.15;;
7033;SDS011;3558;53.176;10.412;2023-09-07T17:43:36;3.30;;;3.00;;
7033;SDS011;3558;53.176;10.412;2023-09-07T17:46:03;3.20;;;2.90;;
7033;SDS011;3558;53.176;10.412;2023-09-07T17:48:28;3.50;;;3.20;;
7033;SDS011;3558;53.176;10.412;2023-09-07T17:50:54;2.90;;;2.70;;
7033;SDS011;3558;53.176;10.412;2023-09-07T17:53:19;3.43;;;3.13;;
7033;SDS011;3558;53.176;10.412;2023-09-07T17:55:45;3.50;;;2.90;;
7033;SDS011;3558;53.176;10.412;2023-09-07T17:58:10;3.70;;;3.03;;
7033;SDS011;3558;53.176;10.412;2023-09-07T18:00:35;3.20;;;2.90;;
7033;SDS011;3558;53.176;10.412;2023-09-07T18:03:01;3.40;;;3.10;;
7033;SDS011;3558;53.176;10.412;2023-09-07T18:05:27;3.17;;;2.80;;
7033;SDS011;3558;53.176;10.412;2023-09-07T18:07:53;3.53;;;2.90;;
7033;SDS011;3558;53.176;10.412;2023-09-07T18:10:18;3.03;;;2.63;;
7033;SDS011;3558;53.176;10.412;2023-09-07T18:12:44;3.27;;;2.97;;
7033;SDS011;3558;53.176;10.412;2023-09-07T18:15:09;3.10;;;2.80;;
7033;SDS011;3558;53.176;10.412;2023-09-07T18:17:35;3.63;;;2.80;;
7033;SDS011;3558;53.176;10.412;2023-09-07T18:20:04;3.00;;;2.70;;
7033;SDS011;3558;53.176;10.412;2023-09-07T18:22:31;3.15;;;2.80;;
7033;SDS011;3558;53.176;10.412;2023-09-07T18:24:57;2.57;;;2.30;;
7033;SDS011;3558;53.176;10.412;2023-09-07T18:27:23;2.90;;;2.60;;
7033;SDS011;3558;53.176;10.412;2023-09-07T18:29:49;2.85;;;2.55;;
7033;SDS011;3558;53.176;10.412;2023-09-07T18:32:15;2.90;;;2.60;;
7033;SDS011;3558;53.176;10.412;2023-09-07T18:34:41;3.05;;;2.63;;
7033;SDS011;3558;53.176;10.412;2023-09-07T18:37:06;3.80;;;2.90;;
7033;SDS011;3558;53.176;10.412;2023-09-07T18:39:31;3.00;;;2.70;;
7033;SDS011;3558;53.176;10.412;2023-09-07T18:41:57;2.63;;;2.43;;
7033;SDS011;3558;53.176;10.412;2023-09-07T18:44:23;3.10;;;2.80;;
7033;SDS011;3558;53.176;10.412;2023-09-07T18:46:48;3.00;;;2.67;;
7033;SDS011;3558;53.176;10.412;2023-09-07T18:49:14;2.90;;;2.70;;
7033;SDS011;3558;53.176;10.412;2023-09-07T18:51:39;3.10;;;2.80;;
7033;SDS011;3558;53.176;10.412;2023-09-07T18:54:05;2.85;;;2.58;;
7033;SDS011;3558;53.176;10.412;2023-09-07T18:56:30;2.83;;;2.63;;
7033;SDS011;3558;53.176;10.412;2023-09-07T18:58:57;3.10;;;2.80;;
7033;SDS011;3558;53.176;10.412;2023-09-07T19:01:22;3.57;;;2.57;;
7033;SDS011;3558;53.176;10.412;2023-09-07T19:03:51;3.73;;;2.77;;
7033;SDS011;3558;53.176;10.412;2023-09-07T19:06:18;3.83;;;2.67;;
7033;SDS011;3558;53.176;10.412;2023-09-07T19:08:43;2.70;;;2.50;;
7033;SDS011;3558;53.176;10.412;2023-09-07T19:11:09;3.23;;;2.70;;
7033;SDS011;3558;53.176;10.412;2023-09-07T19:13:35;3.50;;;2.93;;
7033;SDS011;3558;53.176;10.412;2023-09-07T19:16:01;3.60;;;2.80;;
7033;SDS011;3558;53.176;10.412;2023-09-07T19:18:26;2.88;;;2.60;;
7033;SDS011;3558;53.176;10.412;2023-09-07T19:20:52;3.50;;;2.70;;
7033;SDS011;3558;53.176;10.412;2023-09-07T19:23:18;3.30;;;2.80;;
7033;SDS011;3558;53.176;10.412;2023-09-07T19:25:44;2.70;;;2.50;;
7033;SDS011;3558;53.176;10.412;2023-09-07T19:28:09;3.17;;;2.80;;
7033;SDS011;3558;53.176;10.412;2023-09-07T19:30:35;3.40;;;2.70;;
7033;SDS011;3558;53.176;10.412;2023-09-07T19:33:01;3.80;;;2.93;;
7033;SDS011;3558;53.176;10.412;2023-09-07T19:35:26;3.80;;;3.03;;
7033;SDS011;3558;53.176;10.412;2023-09-07T19:37:52;3.58;;;2.80;;
7033;SDS011;3558;53.176;10.412;2023-09-07T19:40:18;4.93;;;3.30;;
7033;SDS011;3558;53.176;10.412;2023-09-07T19:42:44;3.83;;;3.30;;
7033;SDS011;3558;53.176;10.412;2023-09-07T19:45:09;3.55;;;3.25;;
7033;SDS011;3558;53.176;10.412;2023-09-07T19:47:35;4.83;;;3.97;;
7033;SDS011;3558;53.176;10.412;2023-09-07T19:50:00;4.37;;;3.97;;
7033;SDS011;3558;53.176;10.412;2023-09-07T19:52:26;4.80;;;4.30;;
7033;SDS011;3558;53.176;10.412;2023-09-07T19:54:51;5.07;;;4.57;;
7033;SDS011;3558;53.176;10.412;2023-09-07T19:57:17;5.00;;;4.57;;
7033;SDS011;3558;53.176;10.412;2023-09-07T19:59:42;5.73;;;5.13;;
7033;SDS011;3558;53.176;10.412;2023-09-07T20:02:09;6.32;;;5.60;;
7033;SDS011;3558;53.176;10.412;2023-09-07T20:04:35;5.85;;;5.30;;
7033;SDS011;3558;53.176;10.412;2023-09-07T20:07:01;6.13;;;5.50;;
7033;SDS011;3558;53.176;10.412;2023-09-07T20:09:28;6.13;;;5.30;;
7033;SDS011;3558;53.176;10.412;2023-09-07T20:11:54;5.85;;;5.20;;
7033;SDS011;3558;53.176;10.412;2023-09-07T20:14:19;6.03;;;5.43;;
7033;SDS011;3558;53.176;10.412;2023-09-07T20:16:45;5.80;;;5.20;;
7033;SDS011;3558;53.176;10.412;2023-09-07T20:19:11;5.20;;;4.70;;
7033;SDS011;3558;53.176;10.412;2023-09-07T20:21:38;5.07;;;4.57;;
7033;SDS011;3558;53.176;10.412;2023-09-07T20:24:03;6.80;;;4.50;;
7033;SDS011;3558;53.176;10.412;2023-09-07T20:26:29;4.53;;;4.10;;
7033;SDS011;3558;53.176;10.412;2023-09-07T20:28:55;4.10;;;3.80;;
7033;SDS011;3558;53.176;10.412;2023-09-07T20:31:21;4.38;;;3.97;;
7033;SDS011;3558;53.176;10.412;2023-09-07T20:33:47;4.47;;;3.47;;
7033;SDS011;3558;53.176;10.412;2023-09-07T20:36:12;4.45;;;3.60;;
7033;SDS011;3558;53.176;10.412;2023-09-07T20:38:39;3.97;;;3.57;;
7033;SDS011;3558;53.176;10.412;2023-09-07T20:41:05;6.85;;;3.65;;
7033;SDS011;3558;53.176;10.412;2023-09-07T20:43:31;4.97;;;3.40;;
7033;SDS011;3558;53.176;10.412;2023-09-07T20:45:56;5.00;;;3.47;;
7033;SDS011;3558;53.176;10.412;2023-09-07T20:48:22;4.03;;;3.20;;
7033;SDS011;3558;53.176;10.412;2023-09-07T20:50:49;4.13;;;3.20;;
7033;SDS011;3558;53.176;10.412;2023-09-07T20:53:14;4.15;;;3.03;;
7033;SDS011;3558;53.176;10.412;2023-09-07T20:55:41;3.85;;;3.13;;
7033;SDS011;3558;53.176;10.412;2023-09-07T20:58:07;4.20;;;3.10;;
7033;SDS011;3558;53.176;10.412;2023-09-07T21:00:33;3.90;;;3.50;;
7033;SDS011;3558;53.176;10.412;2023-09-07T21:02:58;3.80;;;3.20;;
7033;SDS011;3558;53.176;10.412;2023-09-07T21:05:24;3.50;;;3.05;;
7033;SDS011;3558;53.176;10.412;2023-09-07T21:07:50;3.60;;;3.30;;
7033;SDS011;3558;53.176;10.412;2023-09-07T21:10:16;3.67;;;2.90;;
7033;SDS011;3558;53.176;10.412;2023-09-07T21:12:42;3.47;;;2.78;;
7033;SDS011;3558;53.176;10.412;2023-09-07T21:15:08;3.38;;;2.92;;
7033;SDS011;3558;53.176;10.412;2023-09-07T21:17:36;4.22;;;3.10;;
7033;SDS011;3558;53.176;10.412;2023-09-07T21:20:02;3.08;;;2.78;;
7033;SDS011;3558;53.176;10.412;2023-09-07T21:22:27;3.50;;;3.17;;
7033;SDS011;3558;53.176;10.412;2023-09-07T21:24:53;3.63;;;2.73;;
7033;SDS011;3558;53.176;10.412;2023-09-07T21:27:19;3.33;;;3.03;;
7033;SDS011;3558;53.176;10.412;2023-09-07T21:29:45;3.77;;;2.80;;
7033;SDS011;3558;53.176;10.412;2023-09-07T21:32:10;4.00;;;3.00;;
7033;SDS011;3558;53.176;10.412;2023-09-07T21:34:36;3.20;;;2.87;;
7033;SDS011;3558;53.176;10.412;2023-09-07T21:37:01;3.17;;;2.88;;
7033;SDS011;3558;53.176;10.412;2023-09-07T21:39:27;2.90;;;2.60;;
7033;SDS011;3558;53.176;10.412;2023-09-07T21:41:53;3.10;;;2.80;;
7033;SDS011;3558;53.176;10.412;2023-09-07T21:44:20;3.15;;;2.85;;
7033;SDS011;3558;53.176;10.412;2023-09-07T21:46:47;4.07;;;2.73;;
7033;SDS011;3558;53.176;10.412;2023-09-07T21:49:13;3.65;;;2.90;;
7033;SDS011;3558;53.176;10.412;2023-09-07T21:51:40;3.17;;;2.65;;
7033;SDS011;3558;53.176;10.412;2023-09-07T21:54:06;3.63;;;2.88;;
7033;SDS011;3558;53.176;10.412;2023-09-07T21:56:33;3.60;;;2.63;;
7033;SDS011;3558;53.176;10.412;2023-09-07T21:58:59;3.10;;;2.80;;
